Time;durP1;ratioP1;P1;durP2;ratioP2;P2;SDS_P1;SDS_P2;PMS_P1;PMS_P2;Temp;Humidity;BMP_temperature;BMP_pressure;BME280_temperature;BME280_humidity;BME280_pressure;Samples;Min_cycle;Max_cycle;Signal;HPM_P1;HPM_P2
2021/05/11 00:01:39;;;;;;;10.20;7.20;;;14.10;99.90;;;;;;5015947;28;20195;-87
2021/05/11 00:04:05;;;;;;;9.07;6.80;;;14.00;99.90;;;;;;5033121;28;20183;-87
2021/05/11 00:06:30;;;;;;;8.57;7.20;;;14.10;99.90;;;;;;5035315;28;20246;-87
2021/05/11 00:08:56;;;;;;;8.57;6.27;;;14.00;99.90;;;;;;5012957;28;20214;-87
2021/05/11 00:11:22;;;;;;;8.10;6.63;;;14.00;99.90;;;;;;5014141;28;20265;-87
2021/05/11 00:13:47;;;;;;;9.57;7.37;;;14.10;99.90;;;;;;5015289;28;20184;-87
2021/05/11 00:16:13;;;;;;;8.83;7.37;;;14.10;99.90;;;;;;5011488;28;20191;-87
2021/05/11 00:18:39;;;;;;;10.03;7.77;;;14.00;99.90;;;;;;5012024;28;20352;-87
2021/05/11 00:21:04;;;;;;;7.87;6.63;;;14.00;99.90;;;;;;5014753;28;20218;-87
2021/05/11 00:23:30;;;;;;;9.40;7.43;;;14.00;99.90;;;;;;5015859;28;20234;-87
2021/05/11 00:25:56;;;;;;;8.60;6.93;;;14.10;99.90;;;;;;5013667;28;20218;-87
2021/05/11 00:28:22;;;;;;;7.40;6.50;;;14.10;99.90;;;;;;5018838;28;20192;-87
2021/05/11 00:30:49;;;;;;;8.90;7.00;;;14.20;99.90;;;;;;5013205;28;20290;-87
2021/05/11 00:33:15;;;;;;;8.20;6.60;;;14.20;99.90;;;;;;5011904;28;20211;-87
2021/05/11 00:35:40;;;;;;;9.27;7.30;;;;;;;;;;5013520;28;20222;-87
2021/05/11 00:38:06;;;;;;;8.93;6.90;;;14.10;99.90;;;;;;5029346;28;20211;-87
2021/05/11 00:40:32;;;;;;;8.93;6.87;;;14.10;99.90;;;;;;5011871;28;20190;-87
2021/05/11 00:42:57;;;;;;;8.23;6.73;;;14.00;99.90;;;;;;5011279;28;20203;-87
2021/05/11 00:45:23;;;;;;;9.87;7.57;;;14.00;99.90;;;;;;5011348;28;20212;-87
2021/05/11 00:47:48;;;;;;;10.50;8.03;;;13.90;99.90;;;;;;5014127;28;20196;-87
2021/05/11 00:50:14;;;;;;;12.50;7.77;;;13.90;99.90;;;;;;5019328;28;20299;-87
2021/05/11 00:52:40;;;;;;;8.17;6.97;;;13.90;99.90;;;;;;5015522;28;20202;-87
2021/05/11 00:55:07;;;;;;;8.63;7.40;;;13.90;99.90;;;;;;5011064;28;20199;-87
2021/05/11 00:57:34;;;;;;;9.03;7.40;;;13.90;99.90;;;;;;5019492;28;20214;-86
2021/05/11 01:00:00;;;;;;;7.53;6.73;;;14.00;99.90;;;;;;5015687;28;20223;-87
2021/05/11 01:09:10;;;;;;;12.03;7.40;;;14.00;99.90;;;;;;5030589;28;20202;-86
2021/05/11 01:11:37;;;;;;;7.87;6.87;;;13.90;99.90;;;;;;5020609;28;20183;-86
2021/05/11 01:14:04;;;;;;;8.53;7.47;;;13.90;99.90;;;;;;5015257;28;20187;-85
2021/05/11 01:16:31;;;;;;;9.67;7.07;;;13.80;99.90;;;;;;5021275;28;20453;-86
2021/05/11 01:19:03;;;;;;;11.13;7.23;;;13.80;99.90;;;;;;5019318;28;20187;-83
2021/05/11 01:21:39;;;;;;;8.63;6.37;;;13.80;99.90;;;;;;5021260;28;20212;-83
2021/05/11 01:26:51;;;;;;;8.60;6.90;;;13.80;99.90;;;;;;5041411;28;20211;-83
2021/05/11 01:29:40;;;;;;;9.77;6.80;;;13.80;99.90;;;;;;5031645;28;20196;-83
2021/05/11 01:32:33;;;;;;;10.07;7.20;;;13.80;99.90;;;;;;5018148;28;20242;-83
2021/05/11 02:18:14;;;;;;;6.67;4.97;;;13.50;99.90;;;;;;5028856;28;20254;-83
2021/05/11 02:23:30;;;;;;;4.63;3.90;;;13.40;99.90;;;;;;5033101;28;23731;-83
2021/05/11 02:25:57;;;;;;;4.70;4.20;;;13.40;99.90;;;;;;5016855;28;20215;-83
2021/05/11 02:28:23;;;;;;;4.37;3.77;;;13.40;99.90;;;;;;5015391;28;20229;-84
2021/05/11 02:30:50;;;;;;;4.97;3.97;;;13.40;99.90;;;;;;5035774;28;23700;-83
2021/05/11 02:33:16;;;;;;;3.77;3.40;;;13.30;99.90;;;;;;5016836;28;20189;-83
2021/05/11 02:35:42;;;;;;;5.17;3.20;;;13.30;99.90;;;;;;5015011;28;20195;-83
2021/05/11 02:38:08;;;;;;;6.00;3.50;;;13.40;99.90;;;;;;5039734;28;20569;-83
2021/05/11 02:40:33;;;;;;;4.60;3.33;;;13.30;99.90;;;;;;5016897;28;20197;-83
2021/05/11 02:43:09;;;;;;;4.40;3.20;;;13.40;99.90;;;;;;5017375;28;20280;-83
2021/05/11 02:45:35;;;;;;;3.90;3.07;;;13.30;99.90;;;;;;5035242;28;20199;-83
2021/05/11 02:48:01;;;;;;;5.27;3.27;;;13.30;99.90;;;;;;5014332;28;20198;-83
2021/05/11 02:50:31;;;;;;;4.53;3.53;;;13.30;99.90;;;;;;5015928;28;20219;-83
2021/05/11 02:52:57;;;;;;;3.80;3.10;;;13.20;99.90;;;;;;5018090;28;20179;-83
2021/05/11 02:55:23;;;;;;;3.87;3.10;;;13.10;99.90;;;;;;5014661;28;21050;-83
2021/05/11 02:57:50;;;;;;;4.67;3.50;;;13.30;99.90;;;;;;5023077;28;20210;-83
2021/05/11 03:00:17;;;;;;;6.07;3.53;;;13.30;99.90;;;;;;5018222;28;20183;-83
2021/05/11 03:02:44;;;;;;;3.73;3.20;;;13.20;99.90;;;;;;5015203;28;20171;-83
2021/05/11 03:05:10;;;;;;;5.17;3.60;;;13.20;99.90;;;;;;5036266;28;20207;-83
2021/05/11 03:07:36;;;;;;;4.50;3.40;;;;;;;;;;5019452;28;20696;-84
2021/05/11 03:10:04;;;;;;;6.93;4.10;;;13.20;99.90;;;;;;5016330;28;20191;-83
2021/05/11 03:12:30;;;;;;;3.33;3.03;;;13.20;99.90;;;;;;5035779;28;20199;-83
2021/05/11 03:14:56;;;;;;;4.27;3.83;;;13.30;99.90;;;;;;5019664;28;20187;-83
2021/05/11 03:17:21;;;;;;;4.60;3.30;;;13.30;99.90;;;;;;5018063;28;20191;-83
2021/05/11 03:19:47;;;;;;;5.50;4.03;;;14.50;99.90;;;;;;5021184;28;20562;-83
2021/05/11 03:22:13;;;;;;;6.40;3.47;;;13.10;99.90;;;;;;5021349;28;20194;-83
2021/05/11 03:24:43;;;;;;;4.80;3.70;;;13.10;99.90;;;;;;5022613;28;20233;-83
2021/05/11 03:27:09;;;;;;;4.50;4.00;;;13.10;99.90;;;;;;5020520;28;20183;-83
2021/05/11 03:29:35;;;;;;;4.57;3.50;;;13.20;99.90;;;;;;5021089;28;20187;-83
2021/05/11 03:32:01;;;;;;;6.93;3.93;;;13.10;99.90;;;;;;5019556;28;20187;-83
2021/05/11 03:34:26;;;;;;;5.53;4.20;;;13.10;99.90;;;;;;5016559;28;20190;-83
2021/05/11 03:36:52;;;;;;;6.03;4.40;;;13.30;99.90;;;;;;5015923;28;20208;-83
2021/05/11 03:39:18;;;;;;;6.90;4.47;;;13.30;99.90;;;;;;5016326;28;20196;-83
2021/05/11 03:41:47;;;;;;;4.90;3.97;;;13.30;99.90;;;;;;5035051;28;20199;-82
2021/05/11 03:46:39;;;;;;;4.83;4.10;;;13.20;99.90;;;;;;5033619;28;20223;-83
2021/05/11 03:49:06;;;;;;;6.07;4.07;;;13.20;99.90;;;;;;5017143;28;20231;-83
2021/05/11 03:51:33;;;;;;;9.07;4.67;;;13.10;99.90;;;;;;5021634;28;20191;-83
2021/05/11 03:54:00;;;;;;;5.37;4.33;;;13.10;99.90;;;;;;5020273;28;20192;-84
2021/05/11 03:56:26;;;;;;;10.10;5.33;;;13.10;99.90;;;;;;5015495;28;20612;-83
2021/05/11 03:58:53;;;;;;;8.33;5.63;;;12.90;99.90;;;;;;5015529;28;20260;-83
2021/05/11 04:01:18;;;;;;;8.27;5.10;;;13.00;99.90;;;;;;5020562;28;20227;-84
2021/05/11 04:03:44;;;;;;;6.93;5.07;;;13.00;99.90;;;;;;5015615;28;20183;-83
2021/05/11 04:06:10;;;;;;;6.10;4.37;;;13.10;99.90;;;;;;5016917;28;20203;-83
2021/05/11 04:08:52;;;;;;;6.37;4.70;;;13.20;99.90;;;;;;5018032;28;20688;-83
2021/05/11 04:11:41;;;;;;;6.03;4.37;;;13.20;99.90;;;;;;5014274;28;20200;-83
2021/05/11 04:16:48;;;;;;;7.70;5.13;;;;;;;;;;5031320;28;20202;-84
2021/05/11 04:19:13;;;;;;;8.73;5.73;;;13.10;99.90;;;;;;5019515;28;20199;-83
2021/05/11 04:21:39;;;;;;;6.67;5.63;;;13.20;99.90;;;;;;5014097;28;20579;-83
2021/05/11 04:24:05;;;;;;;6.50;5.27;;;13.30;99.90;;;;;;5036103;28;20203;-83
2021/05/11 04:26:32;;;;;;;8.70;6.23;;;13.30;99.90;;;;;;5023137;28;20235;-83
2021/05/11 04:28:58;;;;;;;8.63;6.43;;;13.30;99.90;;;;;;5036267;28;20188;-84
2021/05/11 04:31:24;;;;;;;8.57;6.67;;;13.20;99.90;;;;;;5035203;28;20530;-83
2021/05/11 04:33:49;;;;;;;8.00;6.80;;;13.20;99.90;;;;;;5038355;28;20198;-84
2021/05/11 04:36:16;;;;;;;9.33;6.80;;;13.20;99.90;;;;;;5039147;28;20647;-83
2021/05/11 04:38:42;;;;;;;8.67;6.00;;;13.20;99.90;;;;;;5019821;28;20659;-84
2021/05/11 04:41:08;;;;;;;10.13;6.40;;;13.30;99.90;;;;;;5018945;28;20195;-84
2021/05/11 04:43:36;;;;;;;10.03;6.90;;;13.30;99.90;;;;;;5019759;28;20199;-84
2021/05/11 04:48:37;;;;;;;10.23;6.20;;;13.20;99.90;;;;;;5036717;28;20859;-84
2021/05/11 04:51:03;;;;;;;8.87;6.80;;;13.30;99.90;;;;;;5018978;28;20199;-84
2021/05/11 04:53:29;;;;;;;11.27;6.60;;;13.30;99.90;;;;;;5020982;28;20207;-84
2021/05/11 04:55:54;;;;;;;9.13;6.30;;;13.40;99.90;;;;;;5016456;28;20218;-84
2021/05/11 04:58:20;;;;;;;10.30;6.90;;;13.40;99.90;;;;;;5037050;28;20253;-84
2021/05/11 05:00:45;;;;;;;8.43;6.43;;;13.60;99.90;;;;;;5017562;28;20199;-84
2021/05/11 05:03:15;;;;;;;8.63;6.30;;;13.60;99.90;;;;;;5016881;28;20199;-84
2021/05/11 05:05:43;;;;;;;7.77;6.13;;;13.70;99.90;;;;;;5022563;28;20214;-84
2021/05/11 05:08:09;;;;;;;7.47;5.70;;;13.90;99.90;;;;;;5038304;28;20663;-84
2021/05/11 05:10:35;;;;;;;8.13;6.57;;;13.90;99.90;;;;;;5018123;28;20196;-84
2021/05/11 05:13:00;;;;;;;8.87;6.50;;;13.90;99.90;;;;;;5038442;28;20192;-84
2021/05/11 05:15:26;;;;;;;8.20;6.30;;;14.00;99.90;;;;;;5025460;28;20301;-84
2021/05/11 05:17:52;;;;;;;10.03;6.07;;;14.10;99.90;;;;;;5022687;28;20171;-84
2021/05/11 05:20:18;;;;;;;7.33;5.83;;;14.10;99.90;;;;;;5016399;28;20196;-84
2021/05/11 05:22:44;;;;;;;11.30;6.87;;;14.10;99.90;;;;;;5017260;28;20194;-84
2021/05/11 05:25:13;;;;;;;8.50;6.30;;;14.20;99.90;;;;;;5021611;28;20206;-83
2021/05/11 05:30:20;;;;;;;8.33;5.70;;;14.60;99.90;;;;;;5038583;28;20195;-83
2021/05/11 05:32:46;;;;;;;9.07;5.60;;;14.80;99.90;;;;;;5021771;28;20200;-83
2021/05/11 05:35:12;;;;;;;8.10;5.90;;;14.70;99.90;;;;;;5018528;28;20188;-83
2021/05/11 05:37:37;;;;;;;5.73;4.80;;;14.70;99.90;;;;;;5018039;28;20211;-83
2021/05/11 05:40:06;;;;;;;5.10;4.60;;;14.80;99.90;;;;;;5020567;28;20663;-84
2021/05/11 05:42:32;;;;;;;4.90;3.90;;;14.70;99.90;;;;;;5018158;28;20191;-83
2021/05/11 05:44:57;;;;;;;5.07;4.13;;;14.80;99.90;;;;;;5019937;28;20217;-84
2021/05/11 05:47:23;;;;;;;5.17;4.67;;;14.70;99.20;;;;;;5021908;28;20184;-84
2021/05/11 05:49:53;;;;;;;6.03;4.77;;;14.60;99.30;;;;;;5014696;28;20199;-84
2021/05/11 05:52:23;;;;;;;5.13;4.13;;;14.60;99.90;;;;;;5018235;28;20179;-82
2021/05/11 05:54:49;;;;;;;5.03;3.97;;;14.70;99.90;;;;;;5018180;28;20189;-84
2021/05/11 05:57:15;;;;;;;4.93;4.20;;;14.80;99.90;;;;;;5020723;28;20620;-84
2021/05/11 05:59:43;;;;;;;4.57;4.17;;;14.80;99.90;;;;;;5022342;28;20191;-84
2021/05/11 06:02:18;;;;;;;4.13;3.70;;;15.00;99.90;;;;;;5018042;28;20188;-84
2021/05/11 06:04:43;;;;;;;4.33;3.93;;;15.10;98.60;;;;;;5017226;28;20184;-84
2021/05/11 06:07:09;;;;;;;5.87;4.47;;;15.20;96.70;;;;;;5022357;28;20208;-84
2021/05/11 06:09:35;;;;;;;5.50;4.50;;;15.20;96.90;;;;;;5016817;28;20188;-83
2021/05/11 06:19:37;;;;;;;4.70;3.97;;;;;;;;;;5040207;28;20554;-86
2021/05/11 06:22:02;;;;;;;4.03;3.33;;;15.90;92.40;;;;;;5023394;28;20178;-86
2021/05/11 06:24:28;;;;;;;4.00;3.60;;;16.10;91.70;;;;;;5021569;28;20187;-85
2021/05/11 06:26:54;;;;;;;4.17;3.63;;;16.10;91.90;;;;;;5023507;28;20281;-85
2021/05/11 06:29:21;;;;;;;6.03;4.03;;;16.40;91.00;;;;;;5023261;28;20188;-85
2021/05/11 06:31:48;;;;;;;4.73;4.00;;;16.40;90.50;;;;;;5022400;28;20201;-86
2021/05/11 06:34:13;;;;;;;5.03;3.83;;;16.60;90.30;;;;;;5021602;28;20260;-85
2021/05/11 06:36:39;;;;;;;3.60;3.27;;;16.60;90.60;;;;;;5024101;28;20233;-84
2021/05/11 06:39:11;;;;;;;3.93;3.43;;;16.70;86.80;;;;;;5026443;28;20200;-85
2021/05/11 06:41:38;;;;;;;4.37;3.63;;;16.70;85.90;;;;;;5026196;28;20185;-85
2021/05/11 06:44:10;;;;;;;3.63;3.30;;;16.80;86.90;;;;;;5024419;28;20274;-85
2021/05/11 06:54:15;;;;;;;7.73;5.23;;;16.60;89.10;;;;;;5033785;28;20553;-88
2021/05/11 06:56:45;;;;;;;4.60;4.07;;;16.60;90.00;;;;;;5017795;28;20268;-85
2021/05/11 06:59:14;;;;;;;5.47;4.80;;;16.40;90.40;;;;;;5021212;28;20283;-85
2021/05/11 07:01:40;;;;;;;5.77;4.60;;;16.10;91.90;;;;;;5023495;28;20580;-87
2021/05/11 07:04:06;;;;;;;6.00;4.53;;;16.10;92.30;;;;;;5025146;28;20299;-90
2021/05/11 07:06:31;;;;;;;5.73;5.00;;;16.00;92.40;;;;;;5025042;28;20231;-87
2021/05/11 07:09:04;;;;;;;5.67;4.83;;;16.00;92.40;;;;;;5023258;28;20231;-87
2021/05/11 07:14:01;;;;;;;4.83;4.03;;;16.00;92.30;;;;;;5040601;28;20212;-87
2021/05/11 07:16:27;;;;;;;4.90;4.50;;;15.90;91.90;;;;;;5023757;28;20599;-86
2021/05/11 07:18:53;;;;;;;5.27;4.77;;;15.70;91.00;;;;;;5018606;28;20655;-86
2021/05/11 07:21:19;;;;;;;5.13;4.50;;;;;;;;;;5016028;28;20193;-86
2021/05/11 07:23:45;;;;;;;5.63;4.13;;;15.60;93.00;;;;;;5028906;28;20247;-85
2021/05/11 07:31:16;;;;;;;5.93;4.20;;;15.90;92.80;;;;;;5039164;28;20177;-85
2021/05/11 07:33:45;;;;;;;5.33;4.67;;;15.90;92.90;;;;;;5017954;28;20177;-85
2021/05/11 07:36:12;;;;;;;5.37;4.47;;;;;;;;;;5018938;28;20217;-85
2021/05/11 07:38:38;;;;;;;4.60;4.20;;;16.20;93.10;;;;;;5024604;28;20224;-84
2021/05/11 07:41:08;;;;;;;5.00;4.33;;;16.30;93.20;;;;;;5016178;28;20262;-85
2021/05/11 07:43:39;;;;;;;4.87;4.47;;;16.30;93.40;;;;;;5017839;28;20192;-86
2021/05/11 07:48:52;;;;;;;5.70;4.67;;;16.70;91.60;;;;;;5034443;28;20206;-86
2021/05/11 07:51:43;;;;;;;5.90;3.80;;;16.80;91.10;;;;;;5019740;28;20196;-84
2021/05/11 08:10:48;;;;;;;3.50;3.20;;;17.50;81.30;;;;;;5043423;28;20211;-84
2021/05/11 08:16:12;;;;;;;4.60;3.30;;;16.60;80.80;;;;;;5044324;28;20711;-85
2021/05/11 08:29:22;;;;;;;4.10;2.97;;;18.30;79.90;;;;;;5040744;28;20217;-86
2021/05/11 08:31:48;;;;;;;3.70;3.40;;;18.30;79.90;;;;;;5026419;28;20199;-85
2021/05/11 08:34:14;;;;;;;4.60;2.80;;;18.30;78.70;;;;;;5030079;28;20194;-85
2021/05/11 08:36:39;;;;;;;3.90;3.43;;;18.30;79.40;;;;;;5026928;28;20280;-86
2021/05/11 08:39:05;;;;;;;3.40;3.10;;;18.30;80.00;;;;;;5021439;28;20227;-87
2021/05/11 08:41:31;;;;;;;4.37;3.43;;;18.30;78.00;;;;;;5027825;28;20192;-86
2021/05/11 08:43:57;;;;;;;3.63;3.33;;;18.20;78.90;;;;;;5021898;28;20195;-86
2021/05/11 08:46:23;;;;;;;3.20;2.90;;;18.40;80.30;;;;;;5043886;28;20220;-87
2021/05/11 08:48:50;;;;;;;3.23;2.93;;;18.70;77.40;;;;;;5028392;28;20191;-89
2021/05/11 08:51:22;;;;;;;3.70;3.30;;;18.50;76.40;;;;;;5030607;28;20226;-87
2021/05/11 09:24:18;;;;;;;4.40;3.07;;;19.20;69.30;;;;;;5040111;28;20209;-85
2021/05/11 09:30:17;;;;;;;3.40;2.63;;;19.70;71.00;;;;;;5043699;28;20186;-88
2021/05/11 10:49:25;;;;;;;1.63;1.53;;;21.50;56.20;;;;;;5040361;28;20174;-84
2021/05/11 10:54:57;;;;;;;1.60;1.50;;;21.60;56.90;;;;;;5043732;28;20194;-84
2021/05/11 10:57:54;;;;;;;2.53;1.37;;;21.60;56.10;;;;;;5020137;28;20198;-83
2021/05/11 11:01:09;;;;;;;3.40;2.20;;;;;;;;;;5017386;28;20553;-84
2021/05/11 11:03:14;;;;;;;1.70;1.60;;;21.50;55.20;;;;;;5024549;28;20296;-84
2021/05/11 11:05:44;;;;;;;1.87;1.60;;;21.10;56.20;;;;;;5017028;28;20805;-84
2021/05/11 11:08:26;;;;;;;1.80;1.70;;;20.90;55.50;;;;;;5021741;28;20267;-84
2021/05/11 11:11:02;;;;;;;2.20;1.60;;;20.90;58.50;;;;;;5014846;28;20189;-85
2021/05/11 11:13:28;;;;;;;1.50;1.40;;;20.90;59.10;;;;;;5017390;28;20206;-85
2021/05/11 11:15:59;;;;;;;2.27;1.50;;;21.00;56.20;;;;;;5029558;28;20994;-85
2021/05/11 11:18:25;;;;;;;1.30;1.20;;;21.10;54.50;;;;;;5017551;28;20244;-82
2021/05/11 11:21:19;;;;;;;1.70;1.60;;;21.10;54.90;;;;;;5025686;28;20194;-82
2021/05/11 11:23:51;;;;;;;2.30;1.67;;;21.20;55.80;;;;;;5023750;28;20662;-82
2021/05/11 11:26:36;;;;;;;1.53;1.30;;;21.10;55.20;;;;;;5041637;28;20215;-83
2021/05/11 11:29:07;;;;;;;1.73;1.57;;;21.00;57.10;;;;;;5023872;28;20194;-81
2021/05/11 11:31:36;;;;;;;1.90;1.70;;;21.20;56.30;;;;;;5039508;28;20238;-81
2021/05/11 11:34:15;;;;;;;2.47;1.60;;;21.00;55.40;;;;;;5021821;28;20183;-83
2021/05/11 11:37:00;;;;;;;3.17;1.83;;;21.20;56.40;;;;;;5017693;28;20191;-83
2021/05/11 11:39:31;;;;;;;1.43;1.33;;;21.40;56.50;;;;;;5020801;28;20191;-83
2021/05/11 11:42:01;;;;;;;1.63;1.20;;;21.40;54.10;;;;;;5018446;28;20256;-85
2021/05/11 11:44:30;;;;;;;1.93;1.83;;;21.30;54.00;;;;;;5017489;28;20544;-83
2021/05/11 11:47:01;;;;;;;1.73;1.63;;;21.00;54.40;;;;;;5023333;28;20225;-84
2021/05/11 11:49:30;;;;;;;1.80;1.70;;;20.90;54.10;;;;;;5032527;28;20212;-86
2021/05/11 11:52:08;;;;;;;1.40;1.30;;;20.40;55.30;;;;;;5023224;28;20382;-85
2021/05/11 11:59:32;;;;;;;2.50;1.57;;;20.40;56.40;;;;;;5039040;28;20675;-84
2021/05/11 12:02:03;;;;;;;2.33;1.87;;;20.10;57.40;;;;;;5038638;28;20227;-84
2021/05/11 12:04:30;;;;;;;2.20;2.00;;;;;;;;;;5015392;28;20204;-85
2021/05/11 12:07:04;;;;;;;3.30;1.93;;;20.00;58.20;;;;;;5015411;28;20255;-83
2021/05/11 12:09:30;;;;;;;3.03;1.90;;;;;;;;;;5021925;28;20569;-84
2021/05/11 12:11:59;;;;;;;1.23;1.10;;;;;;;;;;5024350;28;20196;-84
2021/05/11 12:14:24;;;;;;;3.17;1.60;;;20.60;55.70;;;;;;5018522;28;20193;-83
2021/05/11 12:16:50;;;;;;;1.50;1.33;;;20.50;56.20;;;;;;5020143;28;20192;-84
2021/05/11 12:19:19;;;;;;;3.33;1.83;;;20.20;57.00;;;;;;5011740;28;20194;-85
2021/05/11 12:21:52;;;;;;;2.27;1.53;;;20.10;58.10;;;;;;5019071;28;20197;-85
2021/05/11 12:24:19;;;;;;;1.70;1.60;;;20.00;59.60;;;;;;5020586;28;20217;-84
2021/05/11 12:26:46;;;;;;;3.17;1.93;;;;;;;;;;5020053;28;20216;-83
2021/05/11 12:29:19;;;;;;;4.40;2.07;;;20.30;58.00;;;;;;5021022;28;20189;-84
2021/05/11 12:31:48;;;;;;;1.50;1.40;;;19.90;58.60;;;;;;5014471;28;20217;-84
2021/05/11 12:34:22;;;;;;;2.07;1.40;;;19.80;58.60;;;;;;5020156;28;20229;-84
2021/05/11 12:36:54;;;;;;;1.60;1.50;;;19.60;61.40;;;;;;5021678;28;20669;-84
2021/05/11 12:39:43;;;;;;;1.67;1.33;;;19.50;61.30;;;;;;5020466;28;20183;-85
2021/05/11 12:42:18;;;;;;;2.83;1.77;;;19.20;62.80;;;;;;5018791;28;20190;-85
2021/05/11 12:44:45;;;;;;;2.23;1.43;;;19.20;62.80;;;;;;5022237;28;20202;-86
2021/05/11 12:47:14;;;;;;;4.10;1.50;;;19.10;62.10;;;;;;5026986;28;20218;-84
2021/05/11 12:49:40;;;;;;;4.03;1.67;;;18.80;62.40;;;;;;5023403;28;20217;-85
2021/05/11 12:52:10;;;;;;;3.00;1.50;;;;;;;;;;5025643;28;20186;-85
2021/05/11 12:54:51;;;;;;;1.43;1.33;;;18.30;63.00;;;;;;5028781;28;20606;-84
2021/05/11 12:57:37;;;;;;;1.50;1.40;;;17.20;63.80;;;;;;5042364;28;20197;-84
2021/05/11 13:00:16;;;;;;;2.10;1.70;;;17.80;67.20;;;;;;5026613;28;20204;-85
2021/05/11 13:22:16;;;;;;;5.27;2.00;;;17.60;73.80;;;;;;5043344;28;20242;-83
2021/05/11 13:35:15;;;;;;;1.37;1.23;;;16.30;68.90;;;;;;5039570;28;20344;-85
2021/05/11 13:37:41;;;;;;;1.97;1.43;;;17.50;70.00;;;;;;5026688;28;20304;-84
2021/05/11 13:40:07;;;;;;;3.53;1.50;;;17.40;70.00;;;;;;5024386;28;20203;-83
2021/05/11 13:42:33;;;;;;;1.97;1.57;;;17.40;70.50;;;;;;5022961;28;20195;-82
2021/05/11 13:44:59;;;;;;;3.43;2.10;;;;;;;;;;5022477;28;20202;-85
2021/05/11 13:47:25;;;;;;;3.03;1.80;;;17.10;76.80;;;;;;5021246;28;20663;-85
2021/05/11 13:49:57;;;;;;;2.97;2.27;;;17.00;78.30;;;;;;5025561;28;20197;-85
2021/05/11 13:52:23;;;;;;;3.00;2.17;;;17.00;78.90;;;;;;5025259;28;20180;-85
2021/05/11 13:54:54;;;;;;;3.80;2.90;;;17.00;80.40;;;;;;5022883;28;20188;-80
2021/05/11 14:02:41;;;;;;;3.53;2.40;;;16.90;82.70;;;;;;5042388;28;20338;-83
2021/05/11 14:05:08;;;;;;;3.73;2.67;;;16.80;84.90;;;;;;5023834;28;20184;-80
2021/05/11 14:07:34;;;;;;;3.70;2.77;;;16.70;86.10;;;;;;5023963;28;20208;-81
2021/05/11 14:09:59;;;;;;;4.87;3.20;;;16.70;87.40;;;;;;5021592;28;20194;-80
2021/05/11 14:12:25;;;;;;;3.70;2.90;;;16.60;89.00;;;;;;5042693;28;20186;-81
2021/05/11 14:14:51;;;;;;;4.93;3.00;;;16.60;89.30;;;;;;5015805;28;20207;-81
2021/05/11 14:17:17;;;;;;;3.37;2.50;;;16.60;89.00;;;;;;5021435;28;20200;-81
2021/05/11 14:19:43;;;;;;;2.87;2.40;;;16.70;90.00;;;;;;5018975;28;20206;-83
2021/05/11 14:22:09;;;;;;;4.33;2.97;;;16.80;86.30;;;;;;5026035;28;20278;-83
2021/05/11 14:24:34;;;;;;;3.27;2.87;;;16.70;86.20;;;;;;5023052;28;20226;-82
2021/05/11 14:27:00;;;;;;;6.67;2.83;;;16.70;86.20;;;;;;5024375;28;20216;-83
2021/05/11 14:29:26;;;;;;;4.83;2.70;;;16.70;86.80;;;;;;5022656;28;20192;-81
2021/05/11 14:31:51;;;;;;;4.57;2.50;;;16.70;86.80;;;;;;5023212;28;20176;-83
2021/05/11 14:34:19;;;;;;;6.10;2.87;;;16.70;86.80;;;;;;5023450;28;20187;-83
2021/05/11 14:36:45;;;;;;;5.00;2.50;;;16.80;86.30;;;;;;5026433;28;20194;-82
2021/05/11 14:39:11;;;;;;;3.40;1.90;;;16.70;85.50;;;;;;5036669;28;20264;-83
2021/05/11 14:41:36;;;;;;;3.80;2.23;;;16.80;85.00;;;;;;5026995;28;20193;-83
2021/05/11 14:44:04;;;;;;;2.20;1.87;;;16.80;84.70;;;;;;5030247;28;20191;-83
2021/05/11 14:46:30;;;;;;;3.03;2.37;;;16.80;84.40;;;;;;5022392;28;20280;-83
2021/05/11 14:48:55;;;;;;;4.80;3.00;;;16.70;84.30;;;;;;5027244;28;20706;-82
2021/05/11 14:51:21;;;;;;;2.83;2.57;;;16.70;85.10;;;;;;5027076;28;20338;-83
2021/05/11 14:53:48;;;;;;;3.13;2.43;;;16.60;85.60;;;;;;5028128;28;20185;-83
2021/05/11 14:56:14;;;;;;;5.63;3.03;;;16.80;84.90;;;;;;5043097;28;20506;-83
2021/05/11 14:58:40;;;;;;;4.37;2.30;;;16.90;85.30;;;;;;5024802;28;20208;-83
2021/05/11 15:01:05;;;;;;;2.30;2.03;;;17.00;84.10;;;;;;5026424;28;20187;-83
2021/05/11 15:03:32;;;;;;;2.30;1.80;;;17.30;83.30;;;;;;5026665;28;20207;-83
2021/05/11 15:05:57;;;;;;;3.87;2.40;;;17.50;80.90;;;;;;5025228;28;20213;-83
2021/05/11 15:08:23;;;;;;;2.93;2.43;;;17.80;78.90;;;;;;5023121;28;20332;-83
2021/05/11 15:10:49;;;;;;;1.77;1.67;;;17.90;78.20;;;;;;5027906;28;20189;-83
2021/05/11 15:13:16;;;;;;;2.50;1.67;;;18.20;73.90;;;;;;5044368;28;20194;-83
2021/05/11 15:15:48;;;;;;;1.00;0.90;;;18.20;74.40;;;;;;5018655;28;20209;-83
2021/05/11 15:18:14;;;;;;;3.60;1.40;;;18.20;74.50;;;;;;5026564;28;20599;-83
2021/05/11 15:20:40;;;;;;;2.77;1.63;;;18.30;70.80;;;;;;5027871;28;20206;-83
2021/05/11 15:23:06;;;;;;;1.97;1.33;;;18.30;71.30;;;;;;5027947;28;20198;-83
2021/05/11 15:25:32;;;;;;;1.67;1.57;;;;;;;;;;5028352;28;20224;-83
2021/05/11 15:28:00;;;;;;;2.87;1.70;;;17.80;72.50;;;;;;5044311;28;20203;-83
2021/05/11 15:30:27;;;;;;;4.90;2.80;;;17.80;73.10;;;;;;5026782;28;20197;-83
2021/05/11 15:32:57;;;;;;;5.00;3.40;;;17.60;74.30;;;;;;5036305;28;20202;-83
2021/05/11 15:35:29;;;;;;;3.27;2.10;;;17.60;74.10;;;;;;5010643;28;20209;-83
2021/05/11 15:37:58;;;;;;;3.40;2.40;;;16.50;74.30;;;;;;5020913;28;20194;-83
2021/05/11 15:40:26;;;;;;;3.00;2.27;;;17.00;75.10;;;;;;5018575;28;20537;-81
2021/05/11 15:42:52;;;;;;;3.20;2.70;;;16.80;76.30;;;;;;5004852;28;20201;-82
2021/05/11 15:45:19;;;;;;;2.73;1.73;;;16.80;75.60;;;;;;5035016;28;20191;-81
2021/05/11 15:47:52;;;;;;;3.60;1.93;;;16.60;76.30;;;;;;5022222;28;20191;-81
2021/05/11 15:50:29;;;;;;;6.20;1.63;;;16.60;76.70;;;;;;5021422;28;20262;-81
2021/05/11 15:53:00;;;;;;;2.53;1.40;;;16.70;74.70;;;;;;5025468;28;20219;-81
2021/05/11 15:55:26;;;;;;;2.73;1.80;;;16.80;74.40;;;;;;5042311;28;20203;-80
2021/05/11 15:57:52;;;;;;;2.50;1.80;;;16.80;74.40;;;;;;5019271;28;20193;-80
2021/05/11 16:00:19;;;;;;;2.37;1.90;;;16.80;74.50;;;;;;5016067;28;20652;-80
2021/05/11 16:02:45;;;;;;;1.27;1.10;;;16.80;75.00;;;;;;5019781;28;20202;-80
2021/05/11 16:05:11;;;;;;;1.53;1.30;;;16.70;76.00;;;;;;5018984;28;20249;-80
2021/05/11 16:07:37;;;;;;;2.67;1.77;;;16.50;77.50;;;;;;5031714;28;20210;-81
2021/05/11 16:10:08;;;;;;;2.30;1.70;;;16.50;78.20;;;;;;5021962;28;20211;-80
2021/05/11 16:12:35;;;;;;;2.77;1.40;;;;;;;;;;5025071;28;20651;-81
2021/05/11 16:15:02;;;;;;;1.37;1.20;;;16.30;79.10;;;;;;5023973;28;20262;-81
2021/05/11 16:17:28;;;;;;;2.07;1.40;;;16.40;79.20;;;;;;5027481;28;20335;-81
2021/05/11 16:19:53;;;;;;;3.40;1.60;;;16.30;78.70;;;;;;5023369;28;20580;-81
2021/05/11 16:22:19;;;;;;;2.13;1.50;;;16.30;79.00;;;;;;5032835;28;20196;-81
2021/05/11 16:24:45;;;;;;;2.33;1.80;;;16.20;78.70;;;;;;5024722;28;20184;-82
2021/05/11 16:27:11;;;;;;;2.63;1.40;;;16.20;80.30;;;;;;5040909;28;20215;-80
2021/05/11 16:29:36;;;;;;;2.90;1.87;;;16.10;77.80;;;;;;5024157;28;20193;-79
2021/05/11 16:32:04;;;;;;;3.17;1.60;;;16.00;77.80;;;;;;5018956;28;20187;-80
2021/05/11 16:34:31;;;;;;;1.63;1.33;;;16.00;79.10;;;;;;5023827;28;20194;-80
2021/05/11 16:36:56;;;;;;;3.00;1.73;;;16.00;79.50;;;;;;5025939;28;20209;-83
2021/05/11 16:39:23;;;;;;;2.13;1.57;;;16.00;79.60;;;;;;5023024;28;20191;-83
2021/05/11 16:41:49;;;;;;;4.17;1.70;;;16.10;78.80;;;;;;5023681;28;20188;-81
2021/05/11 16:44:15;;;;;;;1.73;1.17;;;16.10;78.80;;;;;;5022677;28;20654;-83
2021/05/11 16:46:40;;;;;;;2.30;1.33;;;16.10;79.10;;;;;;5020643;28;20220;-82
2021/05/11 16:49:06;;;;;;;1.60;1.47;;;16.10;79.10;;;;;;5021407;28;20276;-80
2021/05/11 16:51:33;;;;;;;2.33;1.57;;;16.20;79.30;;;;;;5006887;28;20217;-80
2021/05/11 16:53:58;;;;;;;3.10;1.10;;;16.10;78.40;;;;;;5023765;28;20251;-80
2021/05/11 16:56:24;;;;;;;4.10;2.63;;;16.00;79.60;;;;;;5021914;28;20224;-82
2021/05/11 16:58:50;;;;;;;3.80;1.53;;;16.00;80.40;;;;;;5027209;28;20282;-80
2021/05/11 17:01:16;;;;;;;1.60;1.33;;;15.90;81.30;;;;;;5017132;28;20263;-79
2021/05/11 17:03:42;;;;;;;2.63;1.50;;;15.90;81.90;;;;;;5023701;28;20203;-80
2021/05/11 17:06:07;;;;;;;1.33;1.20;;;15.90;83.00;;;;;;5030074;28;20207;-80
2021/05/11 17:08:33;;;;;;;2.13;1.63;;;15.80;84.60;;;;;;5020501;28;20212;-83
2021/05/11 17:10:59;;;;;;;2.53;1.80;;;15.60;86.10;;;;;;5023732;28;20206;-83
2021/05/11 17:13:25;;;;;;;1.67;1.47;;;15.50;89.70;;;;;;5028391;28;20191;-81
2021/05/11 17:15:53;;;;;;;2.03;1.30;;;15.40;91.10;;;;;;5024929;28;20195;-81
2021/05/11 17:18:19;;;;;;;2.67;1.57;;;15.20;91.90;;;;;;5046973;28;20174;-81
2021/05/11 17:20:45;;;;;;;2.17;1.63;;;15.20;91.80;;;;;;5025705;28;20183;-83
2021/05/11 17:23:11;;;;;;;1.60;1.20;;;15.20;92.80;;;;;;5037664;28;20662;-81
2021/05/11 17:25:37;;;;;;;1.60;1.47;;;15.10;93.60;;;;;;5029524;28;20243;-81
2021/05/11 17:28:05;;;;;;;3.37;1.60;;;15.10;93.80;;;;;;5015383;28;20207;-81
2021/05/11 17:30:31;;;;;;;3.43;1.93;;;15.00;94.40;;;;;;5024415;28;20217;-82